Time;durP1;ratioP1;P1;durP2;ratioP2;P2;SDS_P1;SDS_P2;PMS_P1;PMS_P2;Temp;Humidity;BMP_temperature;BMP_pressure;BME280_temperature;BME280_humidity;BME280_pressure;Samples;Min_cycle;Max_cycle;Signal;HPM_P1;HPM_P2
2023/11/30 00:04:09;;;;;;;13.23;3.70;;;;;;;0.17;66.97;98648.59;10434727;28;20057;-63
2023/11/30 00:09:12;;;;;;;26.05;5.07;;;;;;;-0.01;67.15;98647.56;10452336;28;20048;-63
2023/11/30 00:14:14;;;;;;;18.42;4.20;;;;;;;-0.16;67.85;98647.28;10435898;28;20099;-62
2023/11/30 00:19:15;;;;;;;8.38;3.58;;;;;;;-0.05;68.04;98653.72;10433742;28;20143;-62
2023/11/30 00:24:17;;;;;;;11.50;4.72;;;;;;;0.27;67.82;98657.63;10436018;28;20398;-62
2023/11/30 00:29:20;;;;;;;6.13;3.03;;;;;;;0.41;67.34;98647.63;10432698;28;20048;-63
2023/11/30 00:34:21;;;;;;;10.80;4.47;;;;;;;0.65;67.23;98651.81;10435392;28;20043;-62
2023/11/30 00:39:23;;;;;;;14.07;4.28;;;;;;;0.70;66.69;98644.75;10434858;28;20151;-63
2023/11/30 00:44:25;;;;;;;17.20;6.25;;;;;;;0.79;66.75;98646.94;10435791;28;20049;-63
2023/11/30 00:49:27;;;;;;;10.88;5.25;;;;;;;0.90;66.63;98639.63;10434451;28;20049;-63
2023/11/30 00:54:29;;;;;;;10.65;4.05;;;;;;;0.95;66.51;98636.88;10413921;28;20049;-62
2023/11/30 00:59:31;;;;;;;10.85;5.63;;;;;;;1.00;66.58;98640.06;10415575;28;20420;-63
2023/11/30 01:04:33;;;;;;;21.30;5.57;;;;;;;1.06;66.46;98639.81;10431321;28;20053;-62
2023/11/30 01:09:38;;;;;;;13.35;5.13;;;;;;;1.01;66.05;98628.88;10433517;28;20408;-63
2023/11/30 01:14:41;;;;;;;11.55;4.63;;;;;;;0.92;66.49;98619.81;10433755;28;20774;-62
2023/11/30 01:19:43;;;;;;;11.40;4.68;;;;;;;0.86;66.59;98632.94;10391422;28;20053;-63
2023/11/30 01:24:45;;;;;;;10.40;5.38;;;;;;;0.92;66.70;98626.69;10392795;28;20048;-62
2023/11/30 01:29:47;;;;;;;11.10;4.63;;;;;;;1.06;66.20;98629.53;10390385;28;20042;-63
2023/11/30 01:34:49;;;;;;;9.52;4.43;;;;;;;1.10;66.33;98626.75;10392712;28;20416;-62
2023/11/30 01:39:51;;;;;;;9.80;4.47;;;;;;;1.18;65.89;98609.25;10388087;28;20130;-63
2023/11/30 01:44:53;;;;;;;9.93;5.05;;;;;;;0.89;66.04;98616.53;10393174;28;20034;-62
2023/11/30 01:49:56;;;;;;;9.48;4.65;;;;;;;0.89;66.33;98616.53;10386013;28;20659;-63
2023/11/30 01:55:01;;;;;;;11.43;4.53;;;;;;;0.98;66.08;98595.53;10387244;28;20037;-62
2023/11/30 02:00:08;;;;;;;7.45;4.30;;;;;;;0.64;66.36;98587.56;10389368;28;20048;-62
2023/11/30 02:05:14;;;;;;;8.05;4.22;;;;;;;0.61;66.73;98585.94;10388623;28;20128;-63
2023/11/30 02:10:16;;;;;;;8.50;4.00;;;;;;;0.59;66.82;98576.63;10387259;28;20391;-63
2023/11/30 02:15:18;;;;;;;15.18;5.40;;;;;;;0.53;66.77;98555.41;10387938;28;20053;-62
2023/11/30 02:20:20;;;;;;;10.82;4.47;;;;;;;0.39;66.87;98539.69;10425899;28;20613;-62
2023/11/30 02:25:22;;;;;;;7.47;3.72;;;;;;;0.35;67.50;98552.72;10391418;28;20041;-63
2023/11/30 02:30:25;;;;;;;10.43;4.38;;;;;;;0.59;67.31;98562.00;10425612;28;20631;-62
2023/11/30 02:35:27;;;;;;;7.38;4.28;;;;;;;0.53;66.92;98554.56;10411793;28;20068;-62
2023/11/30 02:40:29;;;;;;;7.65;3.97;;;;;;;0.39;67.21;98546.56;10398334;28;20571;-63
2023/11/30 02:45:31;;;;;;;7.97;4.30;;;;;;;0.42;67.16;98549.03;10432149;28;20048;-63
2023/11/30 02:50:33;;;;;;;6.57;3.65;;;;;;;0.48;66.98;98549.59;10428304;28;20126;-62
2023/11/30 02:55:34;;;;;;;8.35;3.90;;;;;;;0.72;67.05;98549.47;10412817;28;20053;-62
2023/11/30 03:00:36;;;;;;;9.98;3.92;;;;;;;0.86;66.65;98534.28;10430879;28;20144;-62
2023/11/30 03:05:38;;;;;;;7.75;4.32;;;;;;;1.02;66.56;98531.00;10432351;28;20044;-62
2023/11/30 03:10:40;;;;;;;6.38;3.72;;;;;;;1.07;66.41;98520.50;10409747;28;20179;-62
2023/11/30 03:15:44;;;;;;;8.90;3.65;;;;;;;1.14;66.34;98520.16;10411508;28;20048;-62
2023/11/30 03:20:46;;;;;;;8.23;4.03;;;;;;;1.10;66.28;98523.78;10430074;28;20086;-62
2023/11/30 03:25:48;;;;;;;7.30;3.63;;;;;;;1.08;66.03;98520.44;10431120;28;20095;-62
2023/11/30 03:30:50;;;;;;;9.15;4.20;;;;;;;0.97;66.16;98514.91;10428614;28;20479;-62
2023/11/30 03:35:52;;;;;;;12.02;4.00;;;;;;;0.95;66.08;98508.97;10419199;28;20045;-62
2023/11/30 03:40:55;;;;;;;7.10;3.42;;;;;;;0.88;66.34;98517.88;10438088;28;20562;-63
2023/11/30 03:45:57;;;;;;;7.97;3.88;;;;;;;0.86;66.35;98530.00;10388887;28;20143;-62
2023/11/30 03:50:59;;;;;;;9.13;4.30;;;;;;;0.91;66.57;98525.47;10435238;28;20052;-62
2023/11/30 03:56:02;;;;;;;10.70;4.75;;;;;;;0.85;66.31;98523.16;10435354;28;20041;-62
2023/11/30 04:01:05;;;;;;;7.43;4.03;;;;;;;0.77;66.41;98522.66;10436036;28;20072;-63
2023/11/30 04:06:17;;;;;;;8.07;3.83;;;;;;;0.58;66.79;98520.94;10450737;28;20087;-63
2023/11/30 04:11:19;;;;;;;8.68;4.03;;;;;;;0.54;67.11;98526.19;10436307;28;20477;-63
2023/11/30 04:16:21;;;;;;;8.57;3.95;;;;;;;0.43;67.24;98515.53;10417171;28;20091;-63
2023/11/30 04:21:23;;;;;;;7.07;3.50;;;;;;;0.50;67.12;98521.25;10435626;28;20044;-62
2023/11/30 04:26:26;;;;;;;8.70;4.10;;;;;;;0.56;66.94;98515.00;10435711;28;20477;-63
2023/11/30 04:31:29;;;;;;;15.50;4.15;;;;;;;0.55;67.00;98509.03;10418960;28;20572;-62
2023/11/30 04:36:31;;;;;;;8.00;4.22;;;;;;;0.63;67.08;98506.16;10434798;28;20041;-62
2023/11/30 04:41:33;;;;;;;9.50;3.85;;;;;;;0.69;66.82;98498.97;10412606;28;20049;-63
2023/11/30 04:46:35;;;;;;;10.18;4.43;;;;;;;0.72;66.71;98495.44;10433977;28;20049;-62
2023/11/30 04:51:38;;;;;;;6.95;3.60;;;;;;;0.83;66.85;98486.34;10435450;28;20044;-62
2023/11/30 04:56:40;;;;;;;9.85;4.20;;;;;;;0.89;66.51;98482.69;10415754;28;20052;-63
2023/11/30 05:01:42;;;;;;;7.88;4.07;;;;;;;0.90;66.55;98482.63;10416711;28;20155;-62
2023/11/30 05:06:44;;;;;;;7.75;3.88;;;;;;;0.95;66.52;98477.28;10426531;28;20056;-63
2023/11/30 05:11:46;;;;;;;6.28;3.13;;;;;;;0.89;66.55;98472.41;10407071;28;20331;-63
2023/11/30 05:16:48;;;;;;;6.70;3.92;;;;;;;0.87;66.87;98467.31;10435534;28;20052;-63
2023/11/30 05:21:50;;;;;;;6.28;3.28;;;;;;;1.06;66.91;98470.75;10436162;28;20049;-62
2023/11/30 05:26:52;;;;;;;6.50;3.42;;;;;;;1.19;66.25;98474.47;10435892;28;20045;-62
2023/11/30 05:31:55;;;;;;;7.45;3.55;;;;;;;1.23;66.23;98467.41;10417178;28;20049;-62
2023/11/30 05:36:57;;;;;;;7.40;3.35;;;;;;;1.21;66.29;98476.94;10435410;28;20098;-62
2023/11/30 05:41:59;;;;;;;7.47;4.32;;;;;;;1.24;66.36;98466.50;10450105;28;20045;-62
2023/11/30 05:47:01;;;;;;;6.95;3.55;;;;;;;1.27;66.16;98474.94;10433464;28;20072;-63
2023/11/30 05:52:04;;;;;;;7.97;3.78;;;;;;;1.19;66.46;98469.31;10434196;28;20040;-62
2023/11/30 05:57:06;;;;;;;7.70;3.85;;;;;;;1.22;66.45;98458.84;10433855;28;20048;-62
2023/11/30 06:02:10;;;;;;;6.88;3.55;;;;;;;1.27;66.37;98456.06;10434163;28;20513;-62
2023/11/30 06:07:12;;;;;;;7.70;3.42;;;;;;;1.33;66.08;98456.63;10433513;28;20452;-62
2023/11/30 06:12:14;;;;;;;7.47;3.60;;;;;;;1.40;66.01;98448.63;10432883;28;20041;-63
2023/11/30 06:17:17;;;;;;;12.63;3.47;;;;;;;1.49;66.06;98446.44;10426952;28;20075;-62
2023/11/30 06:22:19;;;;;;;6.88;3.03;;;;;;;1.59;66.14;98446.84;10390926;28;20139;-62
2023/11/30 06:27:20;;;;;;;5.70;3.70;;;;;;;1.61;65.86;98450.19;10415684;28;20084;-63
2023/11/30 06:32:22;;;;;;;7.63;4.45;;;;;;;1.59;65.82;98437.38;10422648;28;20492;-63
2023/11/30 06:37:24;;;;;;;8.55;3.88;;;;;;;1.66;65.80;98436.19;10422348;28;20049;-63
2023/11/30 06:42:27;;;;;;;7.97;3.47;;;;;;;1.67;65.70;98434.44;10435739;28;20566;-63
2023/11/30 06:47:29;;;;;;;7.25;3.40;;;;;;;1.62;65.88;98438.97;10429001;28;20091;-63
2023/11/30 06:52:30;;;;;;;8.43;3.83;;;;;;;1.65;65.97;98442.25;10428972;28;20662;-63
2023/11/30 06:57:32;;;;;;;5.47;3.63;;;;;;;1.64;66.07;98435.44;10441580;28;20072;-63
2023/11/30 07:02:35;;;;;;;10.25;3.83;;;;;;;1.68;65.81;98443.84;10409729;28;20033;-63
2023/11/30 07:07:37;;;;;;;9.18;3.80;;;;;;;1.61;65.80;98438.13;10432549;28;20041;-63
2023/11/30 07:12:39;;;;;;;8.45;3.42;;;;;;;1.64;66.00;98435.44;10437311;28;20052;-63
2023/11/30 07:17:41;;;;;;;6.63;3.65;;;;;;;1.57;65.81;98443.50;10435811;28;20049;-63
2023/11/30 07:22:44;;;;;;;7.40;3.78;;;;;;;1.65;66.11;98449.13;10436763;28;20039;-63
2023/11/30 07:27:46;;;;;;;8.07;3.58;;;;;;;1.55;66.05;98455.63;10436321;28;20037;-63
2023/11/30 07:32:48;;;;;;;8.48;3.72;;;;;;;1.60;66.30;98458.84;10429439;28;20393;-63
2023/11/30 07:37:50;;;;;;;6.45;3.35;;;;;;;1.63;66.27;98463.81;10433505;28;20052;-63
2023/11/30 07:42:52;;;;;;;9.05;4.25;;;;;;;1.75;66.15;98464.09;10426828;28;20183;-62
2023/11/30 07:47:56;;;;;;;9.52;3.90;;;;;;;1.79;65.94;98452.72;10436095;28;20489;-62
2023/11/30 07:52:58;;;;;;;8.35;3.97;;;;;;;1.83;66.05;98448.25;10432214;28;20041;-62
2023/11/30 07:58:00;;;;;;;8.15;3.67;;;;;;;1.96;65.81;98451.91;10435276;28;20412;-62
2023/11/30 08:03:02;;;;;;;7.28;4.10;;;;;;;2.05;65.78;98451.50;10426400;28;20041;-63
2023/11/30 08:08:05;;;;;;;9.57;4.82;;;;;;;2.02;65.66;98439.56;10432788;28;20116;-63
2023/11/30 08:13:07;;;;;;;8.43;4.18;;;;;;;2.12;65.61;98433.06;10413386;28;20045;-62
2023/11/30 08:18:10;;;;;;;9.13;4.10;;;;;;;2.17;65.48;98436.22;10420640;28;20619;-63
2023/11/30 08:23:12;;;;;;;9.48;4.10;;;;;;;2.28;65.39;98424.53;10421654;28;21083;-65
2023/11/30 08:28:16;;;;;;;12.55;4.97;;;;;;;2.38;65.13;98436.91;10405778;28;20203;-63
2023/11/30 08:33:18;;;;;;;9.18;4.90;;;;;;;2.49;64.85;98426.03;10407896;28;20496;-63
2023/11/30 08:38:22;;;;;;;7.95;4.10;;;;;;;2.52;64.65;98418.97;10414582;28;20531;-62
2023/11/30 08:43:24;;;;;;;6.15;4.07;;;;;;;2.43;64.86;98427.19;10403532;28;20134;-63
2023/11/30 08:48:26;;;;;;;9.05;4.25;;;;;;;2.47;64.86;98433.88;10427071;28;20056;-62
2023/11/30 08:53:29;;;;;;;6.38;3.65;;;;;;;2.54;65.01;98422.31;10425898;28;20060;-67
2023/11/30 08:58:31;;;;;;;7.60;4.28;;;;;;;2.69;64.86;98420.69;10427791;28;20138;-67
2023/11/30 09:03:33;;;;;;;8.93;4.20;;;;;;;2.76;64.63;98429.78;10431029;28;20049;-67
2023/11/30 09:08:35;;;;;;;8.43;4.03;;;;;;;2.73;64.66;98435.94;10427804;28;20036;-67
2023/11/30 09:13:37;;;;;;;7.40;3.38;;;;;;;2.72;64.60;98428.28;10430328;28;20049;-67
2023/11/30 09:18:39;;;;;;;7.53;4.43;;;;;;;2.71;64.66;98426.59;10431384;28;20140;-67
2023/11/30 09:23:41;;;;;;;7.28;4.28;;;;;;;2.73;64.47;98411.88;10433572;28;20041;-67
2023/11/30 09:28:43;;;;;;;8.77;4.32;;;;;;;2.73;64.53;98417.03;10432957;28;20044;-67
2023/11/30 09:33:45;;;;;;;8.05;4.45;;;;;;;2.69;64.33;98408.63;10436780;28;20127;-66
2023/11/30 09:38:47;;;;;;;8.85;4.30;;;;;;;2.59;64.26;98409.16;10413507;28;20040;-66
2023/11/30 09:43:50;;;;;;;9.05;4.47;;;;;;;2.66;64.64;98413.94;10436236;28;20548;-67
2023/11/30 09:48:52;;;;;;;9.82;4.47;;;;;;;2.76;64.17;98402.25;10435754;28;20538;-66
2023/11/30 09:53:58;;;;;;;7.88;4.43;;;;;;;2.77;64.58;98403.03;10434393;28;20102;-67
2023/11/30 09:59:00;;;;;;;11.43;4.95;;;;;;;2.70;64.13;98394.78;10434418;28;20044;-66
2023/11/30 10:04:15;;;;;;;8.63;4.50;;;;;;;2.48;64.79;98396.00;10433719;28;20044;-66
2023/11/30 10:09:17;;;;;;;8.10;4.10;;;;;;;2.67;64.66;98402.69;10434279;28;20060;-66
2023/11/30 10:14:19;;;;;;;7.63;4.10;;;;;;;2.75;64.59;98392.81;10433590;28;20428;-66
2023/11/30 10:19:21;;;;;;;9.90;4.03;;;;;;;2.91;64.08;98385.06;10433731;28;20057;-67
2023/11/30 10:24:24;;;;;;;8.32;4.20;;;;;;;3.02;63.92;98388.78;10434039;28;20057;-66
2023/11/30 10:29:27;;;;;;;10.00;4.78;;;;;;;3.21;63.74;98387.78;10433125;28;20293;-66
2023/11/30 10:34:46;;;;;;;9.68;4.60;;;;;;;3.12;63.54;98388.25;10433410;28;20080;-66
2023/11/30 10:39:59;;;;;;;9.18;4.82;;;;;;;2.86;63.72;98387.09;10432948;28;20509;-67
2023/11/30 10:45:03;;;;;;;7.18;4.00;;;;;;;2.65;64.31;98376.13;10433000;28;20049;-67
2023/11/30 10:50:06;;;;;;;8.77;4.65;;;;;;;2.73;64.69;98366.25;10432362;28;20297;-67
2023/11/30 10:55:19;;;;;;;6.72;4.15;;;;;;;2.79;64.42;98370.25;10432620;28;20037;-67
2023/11/30 11:00:23;;;;;;;8.23;4.32;;;;;;;2.86;64.50;98372.44;10432117;28;20060;-67
2023/11/30 11:05:27;;;;;;;8.98;4.82;;;;;;;3.10;64.29;98359.94;10409722;28;20048;-67
2023/11/30 11:10:34;;;;;;;8.18;4.22;;;;;;;3.21;63.86;98361.94;10429952;28;20053;-67
2023/11/30 11:15:36;;;;;;;8.50;3.95;;;;;;;3.25;63.94;98359.13;10427352;28;20762;-67
2023/11/30 11:20:38;;;;;;;8.57;4.65;;;;;;;3.35;63.80;98354.25;10431348;28;20489;-67
2023/11/30 11:25:43;;;;;;;11.95;6.53;;;;;;;3.00;63.86;98359.63;10414013;28;20301;-68
2023/11/30 11:30:49;;;;;;;12.25;6.40;;;;;;;2.94;64.44;98370.28;10431791;28;20168;-67
2023/11/30 11:35:54;;;;;;;10.63;5.65;;;;;;;3.07;64.24;98375.59;10431403;28;20501;-68
2023/11/30 11:40:56;;;;;;;12.20;5.28;;;;;;;3.12;64.04;98377.94;10414320;28;20044;-67
2023/11/30 11:45:58;;;;;;;12.60;4.68;;;;;;;3.18;63.93;98372.44;10430207;28;20041;-67
2023/11/30 11:51:00;;;;;;;10.23;4.78;;;;;;;3.04;64.14;98371.44;10413307;28;20305;-67
2023/11/30 11:56:04;;;;;;;9.20;4.90;;;;;;;3.04;64.13;98365.44;10420858;28;20162;-67
2023/11/30 12:01:06;;;;;;;8.95;4.25;;;;;;;3.01;64.10;98361.25;10439141;28;20148;-67
2023/11/30 12:06:09;;;;;;;8.15;4.68;;;;;;;3.06;64.37;98353.28;10438839;28;20485;-67
2023/11/30 12:11:10;;;;;;;8.48;4.57;;;;;;;3.11;64.26;98350.44;10438812;28;20536;-67
2023/11/30 12:16:12;;;;;;;17.85;4.70;;;;;;;3.19;64.19;98337.94;10438424;28;20061;-67
2023/11/30 12:21:15;;;;;;;9.05;4.63;;;;;;;3.30;63.96;98336.44;10437889;28;20053;-67
2023/11/30 12:26:17;;;;;;;9.80;4.60;;;;;;;3.33;63.94;98322.50;10419203;28;20049;-67
2023/11/30 12:31:19;;;;;;;8.82;4.10;;;;;;;3.41;64.01;98318.59;10438058;28;20519;-67
2023/11/30 12:36:22;;;;;;;10.15;4.50;;;;;;;3.49;63.99;98310.38;10436879;28;20131;-66
2023/11/30 12:41:24;;;;;;;9.50;4.13;;;;;;;3.60;63.89;98302.88;10436896;28;20041;-67
2023/11/30 12:46:26;;;;;;;8.40;4.30;;;;;;;3.70;63.63;98298.84;10438754;28;20409;-67
2023/11/30 12:51:29;;;;;;;8.75;4.25;;;;;;;3.86;63.45;98294.47;10436010;28;20417;-68
2023/11/30 12:56:32;;;;;;;9.30;4.50;;;;;;;3.82;62.87;98291.16;10420141;28;20485;-67
2023/11/30 13:01:34;;;;;;;9.07;4.22;;;;;;;3.86;63.04;98302.22;10436500;28;20079;-67
2023/11/30 13:06:39;;;;;;;10.25;4.40;;;;;;;3.81;63.11;98301.59;10436212;28;20107;-68
2023/11/30 13:11:42;;;;;;;11.45;4.70;;;;;;;3.81;63.24;98297.28;10436891;28;20037;-67
2023/11/30 13:16:44;;;;;;;8.32;4.57;;;;;;;3.81;63.14;98286.94;10436672;28;20080;-67
2023/11/30 13:21:46;;;;;;;9.13;4.65;;;;;;;3.86;63.06;98281.53;10435444;28;20737;-67
2023/11/30 13:26:48;;;;;;;9.85;5.07;;;;;;;3.82;62.87;98283.41;10435957;28;20056;-67
2023/11/30 13:31:50;;;;;;;9.63;4.00;;;;;;;3.80;62.87;98289.63;10435321;28;20499;-67
2023/11/30 13:36:52;;;;;;;11.18;5.22;;;;;;;3.74;63.03;98295.16;10418033;28;20053;-67
2023/11/30 13:41:54;;;;;;;11.57;4.88;;;;;;;3.64;62.94;98292.25;10434732;28;20076;-66
2023/11/30 13:46:56;;;;;;;8.18;3.72;;;;;;;3.41;63.69;98292.75;10416907;28;20110;-67
2023/11/30 13:51:58;;;;;;;9.25;4.28;;;;;;;3.51;63.83;98293.88;10435300;28;20075;-67
2023/11/30 13:57:00;;;;;;;8.70;4.68;;;;;;;3.65;63.57;98293.09;10434139;28;20052;-67
2023/11/30 14:02:02;;;;;;;13.38;5.25;;;;;;;3.63;63.25;98289.75;10433509;28;20045;-67
2023/11/30 14:07:05;;;;;;;9.77;5.05;;;;;;;3.42;63.56;98299.56;10433116;28;20045;-67
2023/11/30 14:12:07;;;;;;;12.75;5.10;;;;;;;3.46;63.97;98301.06;10433617;28;20209;-67
2023/11/30 14:17:10;;;;;;;11.07;4.97;;;;;;;3.54;63.77;98301.44;10415066;28;20136;-67
2023/11/30 14:22:12;;;;;;;8.32;4.38;;;;;;;3.41;63.52;98307.41;10434290;28;20044;-67
2023/11/30 14:27:14;;;;;;;13.68;5.25;;;;;;;3.35;64.05;98318.09;10433498;28;20043;-67
2023/11/30 14:32:16;;;;;;;10.32;4.35;;;;;;;3.34;64.05;98321.56;10433277;28;20090;-67
2023/11/30 14:37:20;;;;;;;13.85;5.82;;;;;;;3.25;64.05;98324.69;10433180;28;20497;-67
2023/11/30 14:42:22;;;;;;;11.55;5.22;;;;;;;2.98;64.68;98327.03;10433390;28;20511;-67
2023/11/30 14:47:25;;;;;;;13.38;6.22;;;;;;;3.10;64.57;98323.78;10432165;28;20168;-67
2023/11/30 14:52:27;;;;;;;12.18;6.07;;;;;;;3.08;64.42;98328.19;10433080;28;20051;-67
2023/11/30 14:57:30;;;;;;;11.02;5.00;;;;;;;2.95;64.67;98335.78;10432308;28;20531;-67
2023/11/30 15:02:31;;;;;;;11.70;5.18;;;;;;;2.99;64.67;98337.28;10414394;28;20076;-67
2023/11/30 15:07:34;;;;;;;10.07;5.60;;;;;;;3.06;64.59;98335.19;10432981;28;20068;-67
2023/11/30 15:12:36;;;;;;;10.93;4.65;;;;;;;3.12;64.83;98331.44;10414279;28;20130;-67
2023/11/30 15:17:38;;;;;;;10.65;4.95;;;;;;;3.17;64.76;98332.03;10432050;28;20464;-67
2023/11/30 15:22:41;;;;;;;11.55;5.70;;;;;;;3.19;64.70;98325.03;10431705;28;20099;-67
2023/11/30 15:27:43;;;;;;;10.27;4.70;;;;;;;3.17;64.52;98330.28;10433090;28;20045;-67
2023/11/30 15:32:45;;;;;;;12.63;5.50;;;;;;;3.10;64.51;98328.09;10418693;28;20511;-67
2023/11/30 15:37:51;;;;;;;13.77;5.35;;;;;;;3.04;64.79;98332.72;10439339;28;20568;-67
2023/11/30 15:42:53;;;;;;;12.85;5.85;;;;;;;3.07;64.73;98341.22;10405271;28;20409;-67
2023/11/30 15:47:55;;;;;;;11.20;5.80;;;;;;;3.07;64.55;98339.44;10439872;28;20401;-67
2023/11/30 15:52:58;;;;;;;14.77;6.10;;;;;;;2.86;64.73;98340.63;10439548;28;20780;-67
2023/11/30 15:58:00;;;;;;;16.45;4.57;;;;;;;2.65;65.39;98341.75;10438721;28;20079;-67
2023/11/30 16:03:04;;;;;;;10.05;5.22;;;;;;;2.67;65.73;98339.91;10439578;28;20045;-67
2023/11/30 16:08:06;;;;;;;9.70;4.93;;;;;;;2.80;65.72;98338.38;10439797;28;20041;-67
2023/11/30 16:13:08;;;;;;;11.93;5.75;;;;;;;2.91;65.26;98336.84;10419890;28;20049;-66
2023/11/30 16:18:10;;;;;;;10.32;4.60;;;;;;;2.98;65.22;98340.78;10432695;28;20049;-66
2023/11/30 16:23:15;;;;;;;8.15;4.30;;;;;;;3.02;65.24;98347.44;10450763;28;20045;-66
2023/11/30 16:28:18;;;;;;;10.13;4.97;;;;;;;3.03;65.29;98350.84;10415713;28;20048;-67
2023/11/30 16:33:20;;;;;;;10.57;5.70;;;;;;;3.04;65.11;98340.47;10435855;28;20045;-66
2023/11/30 16:38:22;;;;;;;16.67;6.43;;;;;;;3.01;65.16;98338.03;10435587;28;20033;-66
2023/11/30 16:43:25;;;;;;;17.02;6.85;;;;;;;3.03;65.17;98332.78;10434746;28;20688;-66
2023/11/30 16:48:27;;;;;;;16.58;6.93;;;;;;;2.93;65.26;98340.19;10415019;28;20457;-65
2023/11/30 16:53:29;;;;;;;12.18;6.22;;;;;;;2.97;65.42;98340.84;10412948;28;20474;-66
2023/11/30 16:58:31;;;;;;;15.60;6.43;;;;;;;2.95;65.29;98340.94;10433349;28;20126;-66
2023/11/30 17:03:34;;;;;;;12.85;6.15;;;;;;;2.82;65.36;98339.97;10434236;28;20045;-66
2023/11/30 17:08:36;;;;;;;15.82;6.28;;;;;;;2.88;65.70;98342.22;10434532;28;20115;-66
2023/11/30 17:13:40;;;;;;;11.48;5.45;;;;;;;2.98;65.53;98343.38;10433742;28;20045;-66
2023/11/30 17:18:44;;;;;;;10.52;5.55;;;;;;;3.05;65.12;98339.53;10429738;28;20052;-66
2023/11/30 17:23:48;;;;;;;12.18;5.88;;;;;;;3.02;65.34;98341.44;10431327;28;20431;-66
2023/11/30 17:28:49;;;;;;;13.57;5.72;;;;;;;3.02;65.35;98337.13;10447512;28;20215;-65
2023/11/30 17:33:54;;;;;;;14.57;6.25;;;;;;;3.01;65.28;98342.34;10432277;28;20499;-66
2023/11/30 17:38:58;;;;;;;16.27;6.35;;;;;;;3.01;65.34;98352.69;10430043;28;20550;-66
2023/11/30 17:44:00;;;;;;;14.98;6.15;;;;;;;2.96;65.44;98352.94;10426004;28;20053;-67
2023/11/30 17:49:02;;;;;;;16.20;6.57;;;;;;;2.85;65.63;98346.69;10432010;28;20347;-66
2023/11/30 17:54:04;;;;;;;11.88;6.00;;;;;;;2.93;65.45;98360.84;10425323;28;20122;-67
2023/11/30 17:59:06;;;;;;;9.68;5.78;;;;;;;3.00;65.44;98351.88;10428624;28;20382;-67
2023/11/30 18:04:08;;;;;;;12.73;5.93;;;;;;;3.03;65.54;98354.28;10429972;28;20047;-66
2023/11/30 18:09:10;;;;;;;12.43;6.28;;;;;;;3.07;65.20;98359.28;10430359;28;20583;-66
2023/11/30 18:14:13;;;;;;;15.80;6.45;;;;;;;3.01;65.39;98360.44;10428143;28;20417;-67
2023/11/30 18:19:15;;;;;;;15.98;7.25;;;;;;;2.77;65.71;98366.91;10387045;28;1144054;-67
2023/11/30 18:24:17;;;;;;;19.60;6.97;;;;;;;2.64;66.24;98361.56;10427328;28;20553;-67
2023/11/30 18:29:19;;;;;;;13.75;7.40;;;;;;;2.76;66.13;98355.78;10427155;28;20855;-66
2023/11/30 18:34:22;;;;;;;13.32;6.75;;;;;;;2.88;65.98;98368.03;10408539;28;20048;-66
2023/11/30 18:39:24;;;;;;;9.65;4.88;;;;;;;2.95;65.73;98368.50;10429522;28;20524;-66
2023/11/30 18:44:26;;;;;;;21.38;6.28;;;;;;;2.97;65.76;98370.09;10430265;28;20059;-66
2023/11/30 18:49:28;;;;;;;13.93;6.18;;;;;;;2.92;65.68;98377.28;10430073;28;20587;-66
2023/11/30 18:54:31;;;;;;;17.02;6.47;;;;;;;2.78;65.81;98379.75;10428032;28;20052;-66
2023/11/30 18:59:33;;;;;;;14.80;6.72;;;;;;;2.82;66.14;98381.25;10429279;28;20037;-67
2023/11/30 19:04:38;;;;;;;21.25;7.07;;;;;;;2.89;65.90;98392.06;10429372;28;20108;-66
2023/11/30 19:09:40;;;;;;;14.15;6.75;;;;;;;2.96;65.85;98390.84;10412774;28;20041;-66
2023/11/30 19:14:42;;;;;;;16.15;7.50;;;;;;;2.99;65.75;98396.66;10430249;28;20045;-65
2023/11/30 19:19:44;;;;;;;20.00;7.55;;;;;;;3.01;65.70;98402.59;10426591;28;20504;-66
2023/11/30 19:24:46;;;;;;;63.90;9.25;;;;;;;2.97;65.91;98401.09;10428346;28;20068;-67
2023/11/30 19:29:48;;;;;;;14.23;5.85;;;;;;;2.85;66.14;98408.63;10431216;28;20049;-67
2023/11/30 19:34:50;;;;;;;15.52;7.72;;;;;;;2.92;66.28;98403.09;10411962;28;20559;-66
2023/11/30 19:39:52;;;;;;;17.40;6.25;;;;;;;2.80;66.01;98408.91;10394820;28;20569;-66
2023/11/30 19:44:54;;;;;;;15.10;6.40;;;;;;;2.84;66.29;98405.25;10392645;28;20064;-66
2023/11/30 19:49:56;;;;;;;18.13;6.90;;;;;;;2.98;66.17;98407.09;10427709;28;20414;-66
2023/11/30 19:55:00;;;;;;;16.38;6.15;;;;;;;2.99;65.76;98409.59;10409988;28;20055;-66
2023/11/30 20:00:05;;;;;;;21.13;6.88;;;;;;;3.05;66.01;98418.75;10428681;28;20059;-66
2023/11/30 20:05:13;;;;;;;11.63;6.72;;;;;;;3.04;65.71;98417.94;10430220;28;20091;-67
2023/11/30 20:10:15;;;;;;;15.27;6.50;;;;;;;2.99;65.94;98414.75;10443289;28;20067;-67
2023/11/30 20:15:20;;;;;;;16.65;6.32;;;;;;;3.01;66.01;98412.06;10433102;28;20088;-67
2023/11/30 20:20:22;;;;;;;14.25;7.40;;;;;;;2.94;65.76;98411.59;10388764;28;20502;-66
2023/11/30 20:25:24;;;;;;;17.77;7.38;;;;;;;2.87;65.88;98404.22;10391580;28;20046;-66
2023/11/30 20:30:27;;;;;;;18.13;5.70;;;;;;;2.93;66.03;98412.50;10392967;28;20046;-67
2023/11/30 20:35:30;;;;;;;15.57;6.32;;;;;;;2.95;65.83;98418.41;10392335;28;20055;-66
2023/11/30 20:40:33;;;;;;;17.23;6.03;;;;;;;2.98;65.88;98422.59;10394644;28;20128;-67
2023/11/30 20:45:36;;;;;;;24.67;6.57;;;;;;;3.01;65.64;98425.81;10393623;28;20056;-66
2023/11/30 20:50:38;;;;;;;27.63;6.90;;;;;;;2.97;65.85;98431.22;10392481;28;20065;-67
2023/11/30 20:55:43;;;;;;;15.40;5.10;;;;;;;2.95;65.95;98433.06;10391323;28;20050;-66
2023/11/30 21:00:45;;;;;;;48.58;6.43;;;;;;;2.98;66.03;98432.91;10393610;28;20029;-66
2023/11/30 21:05:47;;;;;;;17.83;6.97;;;;;;;2.97;65.81;98432.06;10392308;28;20045;-66
2023/11/30 21:10:50;;;;;;;19.83;6.68;;;;;;;2.88;65.77;98431.72;10388136;28;20049;-66
2023/11/30 21:15:52;;;;;;;17.40;5.47;;;;;;;2.85;66.13;98427.56;10395512;28;20481;-66
2023/11/30 21:20:55;;;;;;;13.73;6.63;;;;;;;2.80;66.28;98424.41;10392788;28;20193;-67
2023/11/30 21:25:57;;;;;;;13.45;6.05;;;;;;;2.84;66.11;98428.47;10391602;28;20120;-65
2023/11/30 21:30:59;;;;;;;14.85;5.40;;;;;;;2.86;65.90;98436.13;10393172;28;20509;-67
2023/11/30 21:36:01;;;;;;;22.33;7.22;;;;;;;2.89;65.92;98428.22;10392116;28;20494;-66
2023/11/30 21:41:03;;;;;;;31.80;8.43;;;;;;;2.88;66.05;98432.56;10392843;28;20049;-66
2023/11/30 21:46:05;;;;;;;15.10;5.95;;;;;;;2.90;66.05;98430.75;10392160;28;20483;-66
2023/11/30 21:51:07;;;;;;;13.25;7.38;;;;;;;2.92;65.82;98428.91;10382023;28;20049;-66
2023/11/30 21:56:10;;;;;;;16.40;7.63;;;;;;;2.74;66.10;98429.88;10390828;28;20417;-67
2023/11/30 22:01:12;;;;;;;16.92;6.28;;;;;;;2.79;66.16;98432.19;10391352;28;20486;-66
2023/11/30 22:06:14;;;;;;;14.10;6.30;;;;;;;2.71;66.00;98427.44;10390980;28;20049;-66
2023/11/30 22:11:17;;;;;;;11.18;6.25;;;;;;;2.49;66.39;98421.72;10390274;28;20409;-67
2023/11/30 22:16:19;;;;;;;11.25;5.65;;;;;;;2.53;66.60;98427.53;10394470;28;20095;-66
2023/11/30 22:21:33;;;;;;;12.45;5.13;;;;;;;2.64;66.39;98436.41;10432119;28;20080;-67
2023/11/30 22:26:35;;;;;;;12.20;5.43;;;;;;;2.69;66.34;98461.97;10431678;28;20394;-66
2023/11/30 22:31:37;;;;;;;15.05;5.65;;;;;;;2.69;66.48;98469.72;10431753;28;20435;-66
2023/11/30 22:36:45;;;;;;;15.68;5.57;;;;;;;2.72;66.37;98469.59;10430486;28;20045;-66
2023/11/30 22:41:49;;;;;;;13.98;6.32;;;;;;;2.65;66.23;98461.31;10430791;28;20049;-66
2023/11/30 22:46:51;;;;;;;10.13;5.22;;;;;;;2.60;66.35;98462.47;10431881;28;20200;-66
2023/11/30 22:51:55;;;;;;;8.75;3.88;;;;;;;2.57;66.22;98463.44;10432158;28;20080;-67
2023/11/30 22:56:57;;;;;;;10.52;4.93;;;;;;;2.52;66.38;98465.41;10432532;28;20132;-68
2023/11/30 23:01:59;;;;;;;10.20;5.07;;;;;;;2.53;66.29;98476.56;10430785;28;20051;-66
2023/11/30 23:07:01;;;;;;;10.93;5.25;;;;;;;2.46;66.03;98480.41;10429266;28;20049;-66
2023/11/30 23:12:03;;;;;;;8.20;4.10;;;;;;;2.22;66.36;98452.31;10431221;28;20437;-66
2023/11/30 23:17:07;;;;;;;10.45;5.20;;;;;;;2.09;66.91;98461.56;10430614;28;20049;-67
2023/11/30 23:22:10;;;;;;;14.65;5.85;;;;;;;2.06;67.22;98466.88;10431317;28;20056;-67
2023/11/30 23:27:12;;;;;;;17.63;5.25;;;;;;;2.16;67.10;98475.81;10430736;28;20037;-65
2023/11/30 23:32:14;;;;;;;17.23;5.38;;;;;;;2.24;67.07;98475.44;10430556;28;20140;-66
2023/11/30 23:37:16;;;;;;;13.20;4.82;;;;;;;2.32;67.02;98477.66;10412502;28;20041;-67